sensor_id;sensor_type;location;lat;lon;timestamp;pressure;altitude;pressure_sealevel;temperature;humidity
20077;BME280;12348;42.710;23.378;2023-08-06T00:03:50;94022.19;;;18.83;100.00
20077;BME280;12348;42.710;23.378;2023-08-06T00:06:17;94019.53;;;18.91;100.00
20077;BME280;12348;42.710;23.378;2023-08-06T00:08:45;94027.53;;;18.76;100.00
20077;BME280;12348;42.710;23.378;2023-08-06T00:11:12;94019.72;;;18.75;100.00
20077;BME280;12348;42.710;23.378;2023-08-06T00:13:38;94012.97;;;18.69;100.00
20077;BME280;12348;42.710;23.378;2023-08-06T00:16:09;94032.47;;;18.44;100.00
20077;BME280;12348;42.710;23.378;2023-08-06T00:18:36;94050.31;;;18.38;100.00
20077;BME280;12348;42.710;23.378;2023-08-06T00:21:03;94032.94;;;18.23;100.00
20077;BME280;12348;42.710;23.378;2023-08-06T00:23:30;94009.19;;;18.24;100.00
20077;BME280;12348;42.710;23.378;2023-08-06T00:25:58;94013.38;;;18.17;100.00
20077;BME280;12348;42.710;23.378;2023-08-06T00:28:25;94015.19;;;18.10;100.00
20077;BME280;12348;42.710;23.378;2023-08-06T00:30:52;94013.69;;;18.12;100.00
20077;BME280;12348;42.710;23.378;2023-08-06T00:33:19;94009.34;;;18.08;100.00
20077;BME280;12348;42.710;23.378;2023-08-06T00:35:46;93995.28;;;18.06;100.00
20077;BME280;12348;42.710;23.378;2023-08-06T00:38:13;93997.13;;;17.98;100.00
20077;BME280;12348;42.710;23.378;2023-08-06T00:40:40;94002.69;;;18.05;100.00
20077;BME280;12348;42.710;23.378;2023-08-06T00:43:08;93978.72;;;17.91;100.00
20077;BME280;12348;42.710;23.378;2023-08-06T00:45:36;93974.19;;;17.76;100.00
20077;BME280;12348;42.710;23.378;2023-08-06T00:48:05;93984.56;;;17.71;100.00
20077;BME280;12348;42.710;23.378;2023-08-06T00:50:32;93983.56;;;17.79;100.00
20077;BME280;12348;42.710;23.378;2023-08-06T00:52:59;93978.75;;;17.72;100.00
20077;BME280;12348;42.710;23.378;2023-08-06T00:55:26;93972.38;;;17.84;100.00
20077;BME280;12348;42.710;23.378;2023-08-06T00:57:53;93980.31;;;17.73;100.00
20077;BME280;12348;42.710;23.378;2023-08-06T01:00:24;93984.53;;;17.90;100.00
20077;BME280;12348;42.710;23.378;2023-08-06T01:02:51;93965.28;;;18.02;100.00
20077;BME280;12348;42.710;23.378;2023-08-06T01:05:18;93955.22;;;18.06;100.00
20077;BME280;12348;42.710;23.378;2023-08-06T01:07:55;93945.47;;;18.05;100.00
20077;BME280;12348;42.710;23.378;2023-08-06T01:10:36;93940.53;;;18.14;100.00
20077;BME280;12348;42.710;23.378;2023-08-06T01:13:12;93931.34;;;18.23;100.00
20077;BME280;12348;42.710;23.378;2023-08-06T01:15:46;93942.13;;;18.15;100.00
20077;BME280;12348;42.710;23.378;2023-08-06T01:18:14;93944.59;;;18.24;100.00
20077;BME280;12348;42.710;23.378;2023-08-06T01:20:43;93946.09;;;18.22;100.00
20077;BME280;12348;42.710;23.378;2023-08-06T01:23:10;93946.19;;;18.29;100.00
20077;BME280;12348;42.710;23.378;2023-08-06T01:25:43;93943.19;;;18.34;100.00
20077;BME280;12348;42.710;23.378;2023-08-06T01:28:18;93927.97;;;18.33;100.00
20077;BME280;12348;42.710;23.378;2023-08-06T01:30:50;93923.38;;;18.40;100.00
20077;BME280;12348;42.710;23.378;2023-08-06T01:33:19;93933.56;;;18.44;100.00
20077;BME280;12348;42.710;23.378;2023-08-06T01:35:49;93932.50;;;18.52;100.00
20077;BME280;12348;42.710;23.378;2023-08-06T01:38:17;93930.59;;;18.56;100.00
20077;BME280;12348;42.710;23.378;2023-08-06T01:40:44;93930.13;;;18.77;100.00
20077;BME280;12348;42.710;23.378;2023-08-06T01:43:10;93926.75;;;18.87;100.00
20077;BME280;12348;42.710;23.378;2023-08-06T01:45:37;93917.41;;;18.88;100.00
20077;BME280;12348;42.710;23.378;2023-08-06T01:48:04;93914.97;;;18.79;100.00
20077;BME280;12348;42.710;23.378;2023-08-06T01:50:31;93915.94;;;18.94;100.00
20077;BME280;12348;42.710;23.378;2023-08-06T01:52:59;93915.25;;;19.04;100.00
20077;BME280;12348;42.710;23.378;2023-08-06T01:55:25;93913.63;;;19.00;100.00
20077;BME280;12348;42.710;23.378;2023-08-06T01:57:52;93920.63;;;18.97;100.00
20077;BME280;12348;42.710;23.378;2023-08-06T02:00:19;93919.09;;;19.00;100.00
20077;BME280;12348;42.710;23.378;2023-08-06T02:02:45;93925.28;;;18.97;100.00
20077;BME280;12348;42.710;23.378;2023-08-06T02:05:12;93926.63;;;19.10;100.00
20077;BME280;12348;42.710;23.378;2023-08-06T02:07:39;93911.44;;;19.12;100.00
20077;BME280;12348;42.710;23.378;2023-08-06T02:10:08;93905.66;;;19.18;100.00
20077;BME280;12348;42.710;23.378;2023-08-06T02:12:35;93899.88;;;19.26;100.00
20077;BME280;12348;42.710;23.378;2023-08-06T02:15:02;93885.03;;;19.20;100.00
20077;BME280;12348;42.710;23.378;2023-08-06T02:17:29;93897.13;;;19.23;100.00
20077;BME280;12348;42.710;23.378;2023-08-06T02:19:55;93917.47;;;19.29;100.00
20077;BME280;12348;42.710;23.378;2023-08-06T02:22:22;93918.16;;;19.22;100.00
20077;BME280;12348;42.710;23.378;2023-08-06T02:24:49;93924.28;;;19.08;100.00
20077;BME280;12348;42.710;23.378;2023-08-06T02:27:17;93925.09;;;19.12;100.00
20077;BME280;12348;42.710;23.378;2023-08-06T02:29:44;93935.50;;;19.03;100.00
20077;BME280;12348;42.710;23.378;2023-08-06T02:32:11;93942.28;;;18.83;100.00
20077;BME280;12348;42.710;23.378;2023-08-06T02:34:38;93940.22;;;18.73;100.00
20077;BME280;12348;42.710;23.378;2023-08-06T02:37:05;93940.50;;;18.68;100.00
20077;BME280;12348;42.710;23.378;2023-08-06T02:39:31;93939.13;;;18.51;100.00
20077;BME280;12348;42.710;23.378;2023-08-06T02:41:59;93926.66;;;18.50;100.00
20077;BME280;12348;42.710;23.378;2023-08-06T02:44:28;93931.75;;;18.55;100.00
20077;BME280;12348;42.710;23.378;2023-08-06T02:46:55;93959.81;;;18.55;100.00
20077;BME280;12348;42.710;23.378;2023-08-06T02:49:21;93962.97;;;18.57;100.00
20077;BME280;12348;42.710;23.378;2023-08-06T02:51:48;93960.38;;;18.38;100.00
20077;BME280;12348;42.710;23.378;2023-08-06T02:54:15;93961.09;;;18.35;100.00
20077;BME280;12348;42.710;23.378;2023-08-06T02:56:43;93941.53;;;18.29;100.00
20077;BME280;12348;42.710;23.378;2023-08-06T02:59:10;93922.09;;;18.31;100.00
20077;BME280;12348;42.710;23.378;2023-08-06T03:01:39;93915.09;;;18.33;100.00
20077;BME280;12348;42.710;23.378;2023-08-06T03:04:06;93913.03;;;18.23;100.00
20077;BME280;12348;42.710;23.378;2023-08-06T03:06:32;93911.94;;;18.28;100.00
20077;BME280;12348;42.710;23.378;2023-08-06T03:08:59;93915.59;;;18.39;100.00
20077;BME280;12348;42.710;23.378;2023-08-06T03:11:26;93914.66;;;18.28;100.00
20077;BME280;12348;42.710;23.378;2023-08-06T03:13:53;93896.41;;;18.32;100.00
20077;BME280;12348;42.710;23.378;2023-08-06T03:16:19;93844.22;;;18.30;100.00
20077;BME280;12348;42.710;23.378;2023-08-06T03:18:47;93837.25;;;18.32;100.00
20077;BME280;12348;42.710;23.378;2023-08-06T03:21:14;93865.13;;;18.22;100.00
20077;BME280;12348;42.710;23.378;2023-08-06T03:23:41;93885.69;;;18.16;100.00
20077;BME280;12348;42.710;23.378;2023-08-06T03:26:07;93894.28;;;18.18;100.00
20077;BME280;12348;42.710;23.378;2023-08-06T03:28:34;93875.47;;;18.09;100.00
20077;BME280;12348;42.710;23.378;2023-08-06T03:31:01;93879.31;;;18.05;100.00
20077;BME280;12348;42.710;23.378;2023-08-06T03:33:28;93900.31;;;18.04;100.00
20077;BME280;12348;42.710;23.378;2023-08-06T03:35:56;93939.81;;;18.17;100.00
20077;BME280;12348;42.710;23.378;2023-08-06T03:38:23;93945.25;;;18.17;100.00
20077;BME280;12348;42.710;23.378;2023-08-06T03:40:50;93948.72;;;18.14;100.00
20077;BME280;12348;42.710;23.378;2023-08-06T03:43:17;93956.03;;;18.10;100.00
20077;BME280;12348;42.710;23.378;2023-08-06T03:45:44;93948.53;;;18.27;100.00
20077;BME280;12348;42.710;23.378;2023-08-06T03:48:10;93913.09;;;18.27;100.00
20077;BME280;12348;42.710;23.378;2023-08-06T03:50:37;93891.59;;;18.22;100.00
20077;BME280;12348;42.710;23.378;2023-08-06T03:53:06;93900.16;;;18.20;100.00
20077;BME280;12348;42.710;23.378;2023-08-06T03:55:32;93919.22;;;18.20;100.00
20077;BME280;12348;42.710;23.378;2023-08-06T03:57:59;93935.13;;;18.18;100.00
20077;BME280;12348;42.710;23.378;2023-08-06T04:00:26;93955.22;;;18.33;100.00
20077;BME280;12348;42.710;23.378;2023-08-06T04:02:53;93963.16;;;18.41;100.00
20077;BME280;12348;42.710;23.378;2023-08-06T04:05:19;93946.88;;;18.22;100.00
20077;BME280;12348;42.710;23.378;2023-08-06T04:07:46;93946.38;;;18.13;100.00
20077;BME280;12348;42.710;23.378;2023-08-06T04:10:14;93961.72;;;18.25;100.00
20077;BME280;12348;42.710;23.378;2023-08-06T04:12:41;93965.59;;;18.24;100.00
20077;BME280;12348;42.710;23.378;2023-08-06T04:15:08;93974.00;;;18.38;100.00
20077;BME280;12348;42.710;23.378;2023-08-06T04:17:35;93967.31;;;18.35;100.00
20077;BME280;12348;42.710;23.378;2023-08-06T04:20:02;93972.88;;;18.42;100.00
20077;BME280;12348;42.710;23.378;2023-08-06T04:22:29;93965.03;;;18.37;100.00
20077;BME280;12348;42.710;23.378;2023-08-06T04:24:56;93946.34;;;18.39;100.00
20077;BME280;12348;42.710;23.378;2023-08-06T04:27:24;93941.94;;;18.58;100.00
20077;BME280;12348;42.710;23.378;2023-08-06T04:29:50;93929.97;;;18.66;100.00
20077;BME280;12348;42.710;23.378;2023-08-06T04:32:17;93923.09;;;18.76;100.00
20077;BME280;12348;42.710;23.378;2023-08-06T04:34:44;93931.47;;;18.90;100.00
20077;BME280;12348;42.710;23.378;2023-08-06T04:37:12;93933.91;;;18.99;100.00
20077;BME280;12348;42.710;23.378;2023-08-06T04:39:38;93925.38;;;19.04;100.00
20077;BME280;12348;42.710;23.378;2023-08-06T04:42:06;93915.75;;;19.13;100.00
20077;BME280;12348;42.710;23.378;2023-08-06T04:44:34;93909.59;;;19.20;100.00
20077;BME280;12348;42.710;23.378;2023-08-06T04:47:01;93902.19;;;19.21;100.00
20077;BME280;12348;42.710;23.378;2023-08-06T04:49:27;93894.94;;;19.39;100.00
20077;BME280;12348;42.710;23.378;2023-08-06T04:51:54;93893.09;;;19.50;100.00
20077;BME280;12348;42.710;23.378;2023-08-06T04:54:21;93881.38;;;19.46;100.00
20077;BME280;12348;42.710;23.378;2023-08-06T04:56:48;93879.47;;;19.54;100.00
20077;BME280;12348;42.710;23.378;2023-08-06T04:59:14;93869.06;;;19.67;100.00
20077;BME280;12348;42.710;23.378;2023-08-06T05:01:42;93873.06;;;19.76;100.00
20077;BME280;12348;42.710;23.378;2023-08-06T05:04:09;93875.25;;;20.15;100.00
20077;BME280;12348;42.710;23.378;2023-08-06T05:06:36;93869.03;;;21.02;100.00
20077;BME280;12348;42.710;23.378;2023-08-06T05:09:04;93872.66;;;22.38;100.00
20077;BME280;12348;42.710;23.378;2023-08-06T05:11:31;93882.34;;;22.71;100.00
20077;BME280;12348;42.710;23.378;2023-08-06T05:13:58;93883.47;;;22.78;100.00
20077;BME280;12348;42.710;23.378;2023-08-06T05:16:25;93887.44;;;22.73;100.00
20077;BME280;12348;42.710;23.378;2023-08-06T05:18:53;93891.75;;;22.70;100.00
20077;BME280;12348;42.710;23.378;2023-08-06T05:21:20;93894.59;;;22.27;100.00
20077;BME280;12348;42.710;23.378;2023-08-06T05:23:46;93892.66;;;22.17;100.00
20077;BME280;12348;42.710;23.378;2023-08-06T05:26:13;93891.84;;;22.45;100.00
20077;BME280;12348;42.710;23.378;2023-08-06T05:28:43;93889.28;;;24.19;100.00
20077;BME280;12348;42.710;23.378;2023-08-06T05:31:10;93889.19;;;23.85;100.00
20077;BME280;12348;42.710;23.378;2023-08-06T05:33:37;93889.66;;;23.10;100.00
20077;BME280;12348;42.710;23.378;2023-08-06T05:36:05;93877.75;;;22.25;100.00
20077;BME280;12348;42.710;23.378;2023-08-06T05:38:32;93882.44;;;23.38;100.00
20077;BME280;12348;42.710;23.378;2023-08-06T05:40:59;93871.59;;;24.96;100.00
20077;BME280;12348;42.710;23.378;2023-08-06T05:43:26;93870.41;;;24.97;100.00
20077;BME280;12348;42.710;23.378;2023-08-06T05:45:53;93860.19;;;26.53;100.00
20077;BME280;12348;42.710;23.378;2023-08-06T05:48:20;93863.53;;;28.58;100.00
20077;BME280;12348;42.710;23.378;2023-08-06T05:50:50;93862.22;;;28.92;92.10
20077;BME280;12348;42.710;23.378;2023-08-06T05:53:18;93861.53;;;29.17;88.78
20077;BME280;12348;42.710;23.378;2023-08-06T05:55:45;93864.22;;;30.70;78.80
20077;BME280;12348;42.710;23.378;2023-08-06T05:58:11;93868.13;;;32.59;71.17
20077;BME280;12348;42.710;23.378;2023-08-06T06:00:38;93879.31;;;33.24;66.10
20077;BME280;12348;42.710;23.378;2023-08-06T06:03:05;93877.75;;;31.78;68.42
20077;BME280;12348;42.710;23.378;2023-08-06T06:05:32;93881.44;;;32.46;68.85
20077;BME280;12348;42.710;23.378;2023-08-06T06:07:58;93882.69;;;30.16;74.82
20077;BME280;12348;42.710;23.378;2023-08-06T06:10:26;93890.22;;;31.86;71.51
20077;BME280;12348;42.710;23.378;2023-08-06T06:12:53;93899.00;;;32.34;67.30
20077;BME280;12348;42.710;23.378;2023-08-06T06:15:20;93905.75;;;31.74;70.17
20077;BME280;12348;42.710;23.378;2023-08-06T06:17:46;93905.00;;;32.54;66.49
20077;BME280;12348;42.710;23.378;2023-08-06T06:20:13;93913.50;;;31.26;68.45
20077;BME280;12348;42.710;23.378;2023-08-06T06:22:40;93916.44;;;30.15;73.68
20077;BME280;12348;42.710;23.378;2023-08-06T06:25:07;93922.00;;;32.07;70.21
20077;BME280;12348;42.710;23.378;2023-08-06T06:27:36;93938.66;;;32.29;65.26
20077;BME280;12348;42.710;23.378;2023-08-06T06:30:03;93938.09;;;32.03;66.04
20077;BME280;12348;42.710;23.378;2023-08-06T06:32:30;93944.13;;;32.01;64.44
20077;BME280;12348;42.710;23.378;2023-08-06T06:34:57;93946.06;;;32.72;63.62
20077;BME280;12348;42.710;23.378;2023-08-06T06:37:24;93943.81;;;31.11;65.49
20077;BME280;12348;42.710;23.378;2023-08-06T06:39:51;93936.97;;;32.31;63.20
20077;BME280;12348;42.710;23.378;2023-08-06T06:42:18;93946.91;;;33.19;59.16
20077;BME280;12348;42.710;23.378;2023-08-06T06:44:46;93945.41;;;32.09;61.86
20077;BME280;12348;42.710;23.378;2023-08-06T06:47:15;93948.97;;;31.57;63.35
20077;BME280;12348;42.710;23.378;2023-08-06T06:49:42;93946.03;;;32.54;60.59
20077;BME280;12348;42.710;23.378;2023-08-06T06:52:09;93955.72;;;31.78;61.99
20077;BME280;12348;42.710;23.378;2023-08-06T06:54:36;93956.69;;;32.46;57.31
20077;BME280;12348;42.710;23.378;2023-08-06T06:57:04;93951.63;;;32.63;57.90
20077;BME280;12348;42.710;23.378;2023-08-06T06:59:31;93958.16;;;33.89;53.96
20077;BME280;12348;42.710;23.378;2023-08-06T07:01:59;93978.06;;;33.26;56.43
20077;BME280;12348;42.710;23.378;2023-08-06T07:04:26;93968.75;;;34.69;51.74
20077;BME280;12348;42.710;23.378;2023-08-06T07:06:53;93968.06;;;34.41;50.85
20077;BME280;12348;42.710;23.378;2023-08-06T07:09:19;93977.25;;;33.99;52.97
20077;BME280;12348;42.710;23.378;2023-08-06T07:11:46;93969.41;;;34.22;51.63
20077;BME280;12348;42.710;23.378;2023-08-06T07:14:13;93975.41;;;33.78;51.05
20077;BME280;12348;42.710;23.378;2023-08-06T07:16:40;93978.53;;;33.34;53.15
20077;BME280;12348;42.710;23.378;2023-08-06T07:19:08;93967.06;;;33.14;53.73
20077;BME280;12348;42.710;23.378;2023-08-06T07:21:35;93975.13;;;34.70;50.21
20077;BME280;12348;42.710;23.378;2023-08-06T07:24:02;93982.72;;;33.57;52.38
20077;BME280;12348;42.710;23.378;2023-08-06T07:26:28;93990.78;;;32.59;54.70
20077;BME280;12348;42.710;23.378;2023-08-06T07:28:55;93986.66;;;32.64;54.03
20077;BME280;12348;42.710;23.378;2023-08-06T07:31:22;93981.09;;;34.02;51.96
20077;BME280;12348;42.710;23.378;2023-08-06T07:33:49;93995.91;;;33.29;53.55
20077;BME280;12348;42.710;23.378;2023-08-06T07:36:17;93990.78;;;33.37;53.21
20077;BME280;12348;42.710;23.378;2023-08-06T07:38:44;93987.97;;;33.27;53.51
20077;BME280;12348;42.710;23.378;2023-08-06T07:41:11;93983.50;;;33.39;52.60
20077;BME280;12348;42.710;23.378;2023-08-06T07:43:37;93984.56;;;31.40;57.64
20077;BME280;12348;42.710;23.378;2023-08-06T07:46:04;93993.28;;;32.26;56.42
20077;BME280;12348;42.710;23.378;2023-08-06T07:48:31;93984.09;;;33.80;53.08
20077;BME280;12348;42.710;23.378;2023-08-06T07:50:58;93988.41;;;34.42;49.53
20077;BME280;12348;42.710;23.378;2023-08-06T07:53:26;93991.84;;;33.76;52.02
20077;BME280;12348;42.710;23.378;2023-08-06T07:55:55;93986.72;;;34.35;50.69
20077;BME280;12348;42.710;23.378;2023-08-06T07:58:23;93980.59;;;34.13;51.41
20077;BME280;12348;42.710;23.378;2023-08-06T08:00:50;93980.53;;;33.70;51.62
20077;BME280;12348;42.710;23.378;2023-08-06T08:03:17;93981.16;;;33.38;51.64
20077;BME280;12348;42.710;23.378;2023-08-06T08:05:45;93979.28;;;33.99;49.79
20077;BME280;12348;42.710;23.378;2023-08-06T08:08:12;93980.91;;;34.57;49.00
20077;BME280;12348;42.710;23.378;2023-08-06T08:10:40;93970.06;;;35.46;46.30
20077;BME280;12348;42.710;23.378;2023-08-06T08:13:07;93976.38;;;33.66;50.72
20077;BME280;12348;42.710;23.378;2023-08-06T08:15:34;93961.34;;;33.54;50.83
20077;BME280;12348;42.710;23.378;2023-08-06T08:18:01;93967.78;;;34.72;48.62
20077;BME280;12348;42.710;23.378;2023-08-06T08:20:28;93978.06;;;33.72;50.62
20077;BME280;12348;42.710;23.378;2023-08-06T08:22:58;93980.97;;;34.39;49.28
20077;BME280;12348;42.710;23.378;2023-08-06T08:25:25;93984.13;;;34.65;47.69
20077;BME280;12348;42.710;23.378;2023-08-06T08:27:54;93981.91;;;34.78;47.08
20077;BME280;12348;42.710;23.378;2023-08-06T08:30:21;93991.25;;;36.01;44.82
20077;BME280;12348;42.710;23.378;2023-08-06T08:32:50;93979.41;;;36.41;43.33
20077;BME280;12348;42.710;23.378;2023-08-06T08:35:17;93977.94;;;35.57;44.52
20077;BME280;12348;42.710;23.378;2023-08-06T08:37:43;93987.34;;;35.30;46.26
20077;BME280;12348;42.710;23.378;2023-08-06T08:40:11;93971.13;;;34.86;46.80
20077;BME280;12348;42.710;23.378;2023-08-06T08:42:37;93975.50;;;35.11;46.40
20077;BME280;12348;42.710;23.378;2023-08-06T08:45:11;93981.44;;;36.55;43.48
20077;BME280;12348;42.710;23.378;2023-08-06T08:47:39;93978.94;;;34.39;47.52
20077;BME280;12348;42.710;23.378;2023-08-06T08:50:08;93970.94;;;33.44;48.60
20077;BME280;12348;42.710;23.378;2023-08-06T08:52:36;93970.00;;;32.42;51.18
20077;BME280;12348;42.710;23.378;2023-08-06T08:55:07;93972.19;;;29.40;60.74
20077;BME280;12348;42.710;23.378;2023-08-06T08:57:34;93957.44;;;30.11;58.56
20077;BME280;12348;42.710;23.378;2023-08-06T09:00:00;93947.16;;;31.41;55.94
20077;BME280;12348;42.710;23.378;2023-08-06T09:02:30;93960.78;;;32.32;54.03
20077;BME280;12348;42.710;23.378;2023-08-06T09:04:59;93951.34;;;32.30;52.94
20077;BME280;12348;42.710;23.378;2023-08-06T09:07:29;93952.78;;;33.30;51.33
20077;BME280;12348;42.710;23.378;2023-08-06T09:09:59;93937.16;;;34.45;48.45
20077;BME280;12348;42.710;23.378;2023-08-06T09:12:29;93946.47;;;34.42;47.86
20077;BME280;12348;42.710;23.378;2023-08-06T09:14:55;93948.03;;;34.76;47.98
20077;BME280;12348;42.710;23.378;2023-08-06T09:17:22;93933.19;;;35.47;45.59
20077;BME280;12348;42.710;23.378;2023-08-06T09:19:50;93934.69;;;35.73;45.65
20077;BME280;12348;42.710;23.378;2023-08-06T09:22:17;93935.28;;;34.75;46.91
20077;BME280;12348;42.710;23.378;2023-08-06T09:24:44;93924.97;;;35.29;45.13
20077;BME280;12348;42.710;23.378;2023-08-06T09:27:11;93932.03;;;35.01;45.02
20077;BME280;12348;42.710;23.378;2023-08-06T09:29:42;93923.47;;;35.04;46.43
20077;BME280;12348;42.710;23.378;2023-08-06T09:32:10;93912.84;;;33.85;45.50
20077;BME280;12348;42.710;23.378;2023-08-06T09:34:39;93935.66;;;33.83;46.57
20077;BME280;12348;42.710;23.378;2023-08-06T09:37:08;93922.75;;;33.95;46.62
20077;BME280;12348;42.710;23.378;2023-08-06T09:39:38;93915.91;;;33.96;47.68
20077;BME280;12348;42.710;23.378;2023-08-06T09:42:04;93922.09;;;33.58;47.97
20077;BME280;12348;42.710;23.378;2023-08-06T09:44:32;93908.69;;;33.80;47.87
20077;BME280;12348;42.710;23.378;2023-08-06T09:47:00;93918.00;;;32.67;49.30
20077;BME280;12348;42.710;23.378;2023-08-06T09:49:40;93916.34;;;33.43;48.31
20077;BME280;12348;42.710;23.378;2023-08-06T09:52:11;93914.03;;;34.02;47.97
20077;BME280;12348;42.710;23.378;2023-08-06T09:54:38;93926.97;;;33.81;47.63
20077;BME280;12348;42.710;23.378;2023-08-06T09:57:05;93927.22;;;33.32;45.85
20077;BME280;12348;42.710;23.378;2023-08-06T09:59:32;93924.72;;;33.52;47.33
20077;BME280;12348;42.710;23.378;2023-08-06T10:01:59;93920.09;;;33.03;46.56
20077;BME280;12348;42.710;23.378;2023-08-06T10:04:26;93923.06;;;34.06;46.20
20077;BME280;12348;42.710;23.378;2023-08-06T10:06:56;93924.44;;;32.95;47.82
20077;BME280;12348;42.710;23.378;2023-08-06T10:09:26;93927.13;;;32.08;49.69
20077;BME280;12348;42.710;23.378;2023-08-06T10:11:53;93928.16;;;31.71;50.65
20077;BME280;12348;42.710;23.378;2023-08-06T10:14:24;93935.69;;;31.39;51.28
20077;BME280;12348;42.710;23.378;2023-08-06T10:16:52;93942.66;;;30.01;51.90
20077;BME280;12348;42.710;23.378;2023-08-06T10:19:21;93936.09;;;29.82;53.69
20077;BME280;12348;42.710;23.378;2023-08-06T10:22:10;93924.97;;;29.28;54.71
20077;BME280;12348;42.710;23.378;2023-08-06T10:24:53;93914.50;;;29.06;56.23
20077;BME280;12348;42.710;23.378;2023-08-06T10:27:22;93925.59;;;28.28;59.83
20077;BME280;12348;42.710;23.378;2023-08-06T10:29:49;93901.56;;;29.70;57.30
20077;BME280;12348;42.710;23.378;2023-08-06T10:32:15;93919.44;;;29.95;55.87
20077;BME280;12348;42.710;23.378;2023-08-06T10:34:57;93926.16;;;29.43;56.70
20077;BME280;12348;42.710;23.378;2023-08-06T10:37:25;93936.94;;;28.17;61.36
20077;BME280;12348;42.710;23.378;2023-08-06T10:40:03;93944.78;;;28.19;61.74
20077;BME280;12348;42.710;23.378;2023-08-06T10:42:32;93941.78;;;28.13;62.47
20077;BME280;12348;42.710;23.378;2023-08-06T10:45:17;93944.78;;;28.02;63.01
20077;BME280;12348;42.710;23.378;2023-08-06T10:47:45;93949.19;;;27.44;66.51
20077;BME280;12348;42.710;23.378;2023-08-06T10:50:14;93957.81;;;27.86;65.74
20077;BME280;12348;42.710;23.378;2023-08-06T10:52:43;93950.66;;;27.88;64.38
20077;BME280;12348;42.710;23.378;2023-08-06T10:55:11;93948.00;;;28.01;64.34
20077;BME280;12348;42.710;23.378;2023-08-06T10:57:38;93961.81;;;27.65;64.53
20077;BME280;12348;42.710;23.378;2023-08-06T11:00:06;93958.41;;;27.37;65.57
20077;BME280;12348;42.710;23.378;2023-08-06T11:02:34;93962.22;;;27.63;63.74
20077;BME280;12348;42.710;23.378;2023-08-06T11:05:10;93968.38;;;27.91;62.91
20077;BME280;12348;42.710;23.378;2023-08-06T11:07:38;93964.81;;;27.54;62.93
20077;BME280;12348;42.710;23.378;2023-08-06T11:10:08;93961.97;;;27.58;63.94
20077;BME280;12348;42.710;23.378;2023-08-06T11:12:37;93964.84;;;27.90;63.30
20077;BME280;12348;42.710;23.378;2023-08-06T11:15:05;93958.97;;;28.86;61.53
20077;BME280;12348;42.710;23.378;2023-08-06T11:17:34;93963.53;;;28.93;60.00
20077;BME280;12348;42.710;23.378;2023-08-06T11:20:01;93970.47;;;28.19;62.31
20077;BME280;12348;42.710;23.378;2023-08-06T11:22:28;93983.34;;;28.62;61.81
20077;BME280;12348;42.710;23.378;2023-08-06T11:24:55;93980.81;;;28.51;61.89
20077;BME280;12348;42.710;23.378;2023-08-06T11:27:22;93992.44;;;28.46;63.02
20077;BME280;12348;42.710;23.378;2023-08-06T11:29:50;93996.81;;;27.75;64.60
20077;BME280;12348;42.710;23.378;2023-08-06T11:32:17;93993.28;;;27.91;65.87
20077;BME280;12348;42.710;23.378;2023-08-06T11:34:44;93985.22;;;28.16;67.86
20077;BME280;12348;42.710;23.378;2023-08-06T11:37:10;93983.88;;;28.04;68.95
20077;BME280;12348;42.710;23.378;2023-08-06T11:39:38;93979.03;;;27.72;71.02
20077;BME280;12348;42.710;23.378;2023-08-06T11:42:06;93975.25;;;28.19;67.95
20077;BME280;12348;42.710;23.378;2023-08-06T11:44:35;93988.94;;;28.75;65.53
20077;BME280;12348;42.710;23.378;2023-08-06T11:47:04;93977.16;;;28.87;63.73
20077;BME280;12348;42.710;23.378;2023-08-06T11:49:38;93963.78;;;29.57;60.87
20077;BME280;12348;42.710;23.378;2023-08-06T11:52:12;93961.41;;;30.10;58.48
20077;BME280;12348;42.710;23.378;2023-08-06T11:54:39;93970.19;;;30.59;57.04
20077;BME280;12348;42.710;23.378;2023-08-06T11:57:06;93975.19;;;30.64;56.65
20077;BME280;12348;42.710;23.378;2023-08-06T11:59:33;93966.53;;;29.99;56.58
20077;BME280;12348;42.710;23.378;2023-08-06T12:02:01;93951.09;;;29.85;57.49
20077;BME280;12348;42.710;23.378;2023-08-06T12:04:29;93956.00;;;30.32;55.49
20077;BME280;12348;42.710;23.378;2023-08-06T12:07:04;93957.56;;;30.33;54.14
20077;BME280;12348;42.710;23.378;2023-08-06T12:09:31;93951.69;;;30.18;53.87
20077;BME280;12348;42.710;23.378;2023-08-06T12:11:58;93956.78;;;30.19;55.30
20077;BME280;12348;42.710;23.378;2023-08-06T12:14:25;93952.91;;;30.30;54.00
20077;BME280;12348;42.710;23.378;2023-08-06T12:16:52;93950.44;;;30.45;54.59
20077;BME280;12348;42.710;23.378;2023-08-06T12:19:18;93950.66;;;30.12;51.57
20077;BME280;12348;42.710;23.378;2023-08-06T12:21:48;93952.53;;;30.02;51.92
20077;BME280;12348;42.710;23.378;2023-08-06T12:24:15;93946.91;;;29.09;53.47
20077;BME280;12348;42.710;23.378;2023-08-06T12:26:42;93948.91;;;28.92;54.28
20077;BME280;12348;42.710;23.378;2023-08-06T12:29:08;93953.84;;;28.39;56.01
20077;BME280;12348;42.710;23.378;2023-08-06T12:31:35;93960.16;;;27.87;58.59
20077;BME280;12348;42.710;23.378;2023-08-06T12:34:02;93953.34;;;28.08;58.49
20077;BME280;12348;42.710;23.378;2023-08-06T12:36:29;93958.88;;;28.08;58.23
20077;BME280;12348;42.710;23.378;2023-08-06T12:38:58;93957.69;;;28.25;58.52
20077;BME280;12348;42.710;23.378;2023-08-06T12:41:24;93950.97;;;28.43;56.88
20077;BME280;12348;42.710;23.378;2023-08-06T12:43:51;93944.78;;;28.84;56.10
20077;BME280;12348;42.710;23.378;2023-08-06T12:46:18;93943.97;;;29.00;55.92
20077;BME280;12348;42.710;23.378;2023-08-06T12:48:44;93942.44;;;28.99;55.63
20077;BME280;12348;42.710;23.378;2023-08-06T12:51:11;93944.69;;;28.71;56.93